Time;durP1;ratioP1;P1;durP2;ratioP2;P2;SDS_P1;SDS_P2;PMS_P1;PMS_P2;Temp;Humidity;BMP_temperature;BMP_pressure;BME280_temperature;BME280_humidity;BME280_pressure;Samples;Min_cycle;Max_cycle;Signal;HPM_P1;HPM_P2
2021/02/18 00:08:48;;;;;;;39;33.2;;;;;;;2.17;100;98818.77;;;;
2021/02/18 00:18:46;;;;;;;38.8;31.6;;;;;;;2.19;100;98834.45;;;;
2021/02/18 00:28:44;;;;;;;39.5;33.9;;;;;;;2.17;100;98839.22;;;;
2021/02/18 00:38:42;;;;;;;37;30.4;;;;;;;2.19;100;98842.42;;;;
2021/02/18 00:48:40;;;;;;;46.8;35.2;;;;;;;2.19;100;98837.11;;;;
2021/02/18 00:58:38;;;;;;;44.4;32.9;;;;;;;2.19;100;98843.23;;;;
2021/02/18 01:08:36;;;;;;;36;29.9;;;;;;;2.2;100;98854.68;;;;
2021/02/18 01:18:34;;;;;;;40.1;27.4;;;;;;;2.18;100;98851.47;;;;
2021/02/18 01:28:32;;;;;;;40.2;28.3;;;;;;;2.23;100;98856.84;;;;
2021/02/18 01:38:30;;;;;;;43.1;30.7;;;;;;;2.17;100;98866.62;;;;
2021/02/18 01:48:28;;;;;;;38.7;26.2;;;;;;;2.16;100;98874.83;;;;
2021/02/18 01:58:26;;;;;;;29.8;23.8;;;;;;;2.08;100;98872.61;;;;
2021/02/18 02:08:24;;;;;;;32.2;24.2;;;;;;;2.05;100;98878.42;;;;
2021/02/18 02:18:22;;;;;;;29.3;24.2;;;;;;;2.01;100;98892.17;;;;
2021/02/18 02:28:20;;;;;;;27.5;21.4;;;;;;;2.01;100;98899.37;;;;
2021/02/18 02:38:17;;;;;;;25.8;20;;;;;;;2.01;100;98902.81;;;;
2021/02/18 02:48:15;;;;;;;28.1;17.8;;;;;;;2.02;100;98907.08;;;;
2021/02/18 02:58:14;;;;;;;26.3;19.4;;;;;;;2.02;100;98906.27;;;;
2021/02/18 03:08:11;;;;;;;20.5;15.5;;;;;;;2.08;100;98909.83;;;;
2021/02/18 03:18:09;;;;;;;20.3;16.6;;;;;;;2.03;100;98919.33;;;;
2021/02/18 03:28:07;;;;;;;29.4;19.3;;;;;;;2.02;100;98927.53;;;;
2021/02/18 03:38:05;;;;;;;32.8;19.3;;;;;;;1.99;100;98926.18;;;;
2021/02/18 03:48:03;;;;;;;27.8;21;;;;;;;2.02;100;98925.69;;;;
2021/02/18 03:58:00;;;;;;;25.1;18.8;;;;;;;2.06;100;98943.8;;;;
2021/02/18 04:07:58;;;;;;;25.8;18.1;;;;;;;2.05;100;98939.56;;;;
2021/02/18 04:17:56;;;;;;;28.1;20.3;;;;;;;2.07;100;98948.08;;;;
2021/02/18 04:27:54;;;;;;;33.9;25.8;;;;;;;2.06;100;98944.61;;;;
2021/02/18 04:37:52;;;;;;;32.7;27.5;;;;;;;2.01;100;98957.84;;;;
2021/02/18 04:47:50;;;;;;;31.7;26.4;;;;;;;2;100;98969.52;;;;
2021/02/18 04:57:47;;;;;;;39;26.6;;;;;;;2.01;100;98982.55;;;;
2021/02/18 05:07:45;;;;;;;37.9;25.7;;;;;;;2.01;100;98995.84;;;;
2021/02/18 05:17:43;;;;;;;40.7;24.4;;;;;;;2.03;100;99008.91;;;;
2021/02/18 05:27:41;;;;;;;40.4;32.2;;;;;;;2.01;100;99001.16;;;;
2021/02/18 05:37:39;;;;;;;43.1;36.2;;;;;;;1.98;100;99006.96;;;;
2021/02/18 05:47:37;;;;;;;50.4;34;;;;;;;1.97;100;99023.17;;;;
2021/02/18 05:57:35;;;;;;;51.5;32.9;;;;;;;2.02;100;99023.23;;;;
2021/02/18 06:07:33;;;;;;;49.2;36.5;;;;;;;2.07;100;99025.17;;;;
2021/02/18 06:17:39;;;;;;;53.1;35.4;;;;;;;2.05;100;99030.72;;;;
2021/02/18 06:27:29;;;;;;;45.4;35.2;;;;;;;2.06;100;99040.31;;;;
2021/02/18 06:37:26;;;;;;;50.7;41.1;;;;;;;2.07;100;99051.76;;;;
2021/02/18 06:47:24;;;;;;;61;43.9;;;;;;;2.13;100;99066.73;;;;
2021/02/18 06:57:22;;;;;;;57.4;44.3;;;;;;;2.15;100;99076.11;;;;
2021/02/18 07:07:20;;;;;;;57;42.2;;;;;;;2.09;100;99077.05;;;;
2021/02/18 07:17:18;;;;;;;51.2;40.1;;;;;;;2.16;100;99080.36;;;;
2021/02/18 07:27:16;;;;;;;53.1;42.4;;;;;;;2.18;100;99080.13;;;;
2021/02/18 07:37:14;;;;;;;45.9;36.7;;;;;;;2.25;100;99094.08;;;;
2021/02/18 07:47:11;;;;;;;58.6;39.4;;;;;;;2.29;100;99093.33;;;;
2021/02/18 07:57:09;;;;;;;59.9;42.2;;;;;;;2.35;100;99099.55;;;;
2021/02/18 08:07:07;;;;;;;51.5;45;;;;;;;2.35;100;99103.03;;;;
2021/02/18 08:17:07;;;;;;;53.7;38.7;;;;;;;2.33;100;99110.42;;;;
2021/02/18 08:27:03;;;;;;;48.9;39.1;;;;;;;2.4;100;99118.23;;;;
2021/02/18 08:37:01;;;;;;;43.1;38.9;;;;;;;2.55;100;99126.48;;;;
2021/02/18 08:46:59;;;;;;;63.9;43.5;;;;;;;2.58;100;99130.5;;;;
2021/02/18 08:56:57;;;;;;;43.8;38.6;;;;;;;2.52;100;99138.42;;;;
2021/02/18 09:06:55;;;;;;;42.8;36.2;;;;;;;2.56;100;99144.06;;;;
2021/02/18 09:16:53;;;;;;;56.4;42;;;;;;;2.53;100;99153.31;;;;
2021/02/18 09:26:51;;;;;;;47.7;39.4;;;;;;;2.65;100;99163.88;;;;
2021/02/18 09:36:49;;;;;;;57.6;41.8;;;;;;;2.7;100;99171.97;;;;
2021/02/18 09:46:54;;;;;;;59.9;53.3;;;;;;;2.73;100;99174.14;;;;
2021/02/18 09:56:45;;;;;;;53.2;42.1;;;;;;;2.72;100;99169.86;;;;
2021/02/18 10:06:43;;;;;;;55.7;40.1;;;;;;;2.82;100;99180.66;;;;
2021/02/18 10:16:41;;;;;;;60.9;47.9;;;;;;;2.84;100;99186.56;;;;
2021/02/18 10:26:39;;;;;;;64.6;52.1;;;;;;;2.93;100;99201.06;;;;
2021/02/18 10:36:37;;;;;;;70.8;54.6;;;;;;;2.96;100;99197.91;;;;
2021/02/18 10:46:35;;;;;;;71.2;53.4;;;;;;;2.92;100;99206.63;;;;
2021/02/18 10:56:34;;;;;;;64.5;49.6;;;;;;;3;100;99204.38;;;;
2021/02/18 11:06:33;;;;;;;76.8;56.2;;;;;;;3.15;100;99213.64;;;;
2021/02/18 11:16:30;;;;;;;82.6;63;;;;;;;3;100;99207.03;;;;
2021/02/18 11:26:31;;;;;;;78.8;58.7;;;;;;;3.12;100;99217.61;;;;
2021/02/18 11:36:26;;;;;;;38.5;30.2;;;;;;;2.36;100;99229.63;;;;
2021/02/18 11:46:24;;;;;;;39.3;27.8;;;;;;;1.74;100;99239.31;;;;
2021/02/18 11:56:22;;;;;;;32;28.5;;;;;;;1.39;100;99243.86;;;;
2021/02/18 12:06:20;;;;;;;35.7;27.1;;;;;;;1.03;100;99228.98;;;;
2021/02/18 12:16:18;;;;;;;45;36;;;;;;;1.39;100;99236.7;;;;
2021/02/18 12:26:16;;;;;;;34.1;29.9;;;;;;;1.38;100;99218.36;;;;
2021/02/18 12:36:15;;;;;;;37.9;29.8;;;;;;;1.34;100;99233.14;;;;
2021/02/18 12:46:11;;;;;;;38.7;27.4;;;;;;;1.47;100;99238.2;;;;
2021/02/18 12:56:09;;;;;;;42.3;32.8;;;;;;;1.46;100;99234.73;;;;
2021/02/18 13:06:07;;;;;;;43.4;31.7;;;;;;;0.97;100;99238.65;;;;
2021/02/18 13:16:05;;;;;;;45.4;35.3;;;;;;;0.72;100;99253.97;;;;
2021/02/18 13:26:03;;;;;;;39;32.8;;;;;;;0.82;100;99251.57;;;;
2021/02/18 13:36:01;;;;;;;59.3;42.8;;;;;;;0.66;100;99251.42;;;;
2021/02/18 13:45:58;;;;;;;58.9;43.1;;;;;;;0.67;100;99259.14;;;;
2021/02/18 13:55:56;;;;;;;49.8;39.8;;;;;;;0.65;100;99258.57;;;;
2021/02/18 14:05:54;;;;;;;53.1;47.4;;;;;;;0.75;100;99256.17;;;;
2021/02/18 14:15:52;;;;;;;48.7;43;;;;;;;0.65;100;99261.22;;;;
2021/02/18 14:25:50;;;;;;;56.6;43;;;;;;;0.7;100;99263.17;;;;
2021/02/18 14:35:48;;;;;;;114.7;89.6;;;;;;;0.69;100;99273;;;;
2021/02/18 14:45:46;;;;;;;66.3;53.2;;;;;;;0.57;100;99261.53;;;;
2021/02/18 14:55:43;;;;;;;69.4;56.1;;;;;;;0.76;100;99256.98;;;;
2021/02/18 15:05:41;;;;;;;83.3;64.1;;;;;;;0.72;100;99269.08;;;;
2021/02/18 15:15:39;;;;;;;76.9;61.1;;;;;;;0.52;100;99265.91;;;;
2021/02/18 15:25:37;;;;;;;110.8;81;;;;;;;0.5;100;99276.73;;;;
2021/02/18 15:35:35;;;;;;;93.6;63.5;;;;;;;0.31;100;99278.61;;;;
2021/02/18 15:45:32;;;;;;;85.5;69.6;;;;;;;0.25;100;99276.05;;;;
2021/02/18 15:55:30;;;;;;;89.1;64.8;;;;;;;0.15;100;99273.94;;;;
2021/02/18 16:05:30;;;;;;;89.3;72.5;;;;;;;0;100;99281.48;;;;
2021/02/18 16:15:26;;;;;;;110.4;79.6;;;;;;;-0.08;100;99287.88;;;;
2021/02/18 16:25:23;;;;;;;88.9;74.6;;;;;;;-0.14;100;99290.61;;;;
2021/02/18 16:35:21;;;;;;;86.1;70.6;;;;;;;-0.32;100;99301.19;;;;
2021/02/18 16:45:18;;;;;;;83.3;68.6;;;;;;;-0.26;100;99306.41;;;;
2021/02/18 16:55:16;;;;;;;91.2;66.7;;;;;;;-0.3;100;99302.58;;;;
2021/02/18 17:05:13;;;;;;;92.8;65.2;;;;;;;-0.28;100;99311.13;;;;
2021/02/18 17:15:11;;;;;;;96.9;69.6;;;;;;;-0.36;100;99307.95;;;;
2021/02/18 17:25:09;;;;;;;101.5;74.8;;;;;;;-0.22;100;99301.48;;;;
2021/02/18 17:35:06;;;;;;;90;67.6;;;;;;;-0.3;100;99307.06;;;;
2021/02/18 17:45:04;;;;;;;125.6;84.3;;;;;;;-0.28;100;99312.97;;;;
2021/02/18 17:55:01;;;;;;;104.6;73.2;;;;;;;-0.4;100;99306.76;;;;
2021/02/18 18:04:59;;;;;;;91.9;65.4;;;;;;;-0.31;100;99297.52;;;;
2021/02/18 18:14:56;;;;;;;93.8;67;;;;;;;-0.32;100;99309.95;;;;
2021/02/18 18:24:54;;;;;;;94.9;65.7;;;;;;;-0.41;100;99303.3;;;;
2021/02/18 18:34:51;;;;;;;102;75.2;;;;;;;-0.34;100;99313.82;;;;
2021/02/18 18:44:49;;;;;;;94.1;60.7;;;;;;;-0.4;100;99299.63;;;;
2021/02/18 18:54:46;;;;;;;89.9;68.2;;;;;;;-0.56;100;99318.73;;;;
2021/02/18 19:04:44;;;;;;;72.1;56.3;;;;;;;-0.48;100;99323.73;;;;
2021/02/18 19:14:42;;;;;;;102.1;73.6;;;;;;;-0.51;100;99324.17;;;;
2021/02/18 19:24:39;;;;;;;77.2;60.9;;;;;;;-0.55;100;99322.98;;;;
2021/02/18 19:34:37;;;;;;;91;61.5;;;;;;;-0.53;100;99313;;;;
2021/02/18 19:44:35;;;;;;;94.8;67.3;;;;;;;-0.7;100;99319.88;;;;
2021/02/18 19:54:32;;;;;;;83.3;61.2;;;;;;;-0.65;100;99312.08;;;;
2021/02/18 20:04:31;;;;;;;97.5;68.7;;;;;;;-0.75;100;99306.47;;;;
2021/02/18 20:14:27;;;;;;;71.4;52.8;;;;;;;-0.64;100;99308.42;;;;
2021/02/18 20:24:24;;;;;;;73.6;56.2;;;;;;;-0.66;100;99310.48;;;;
2021/02/18 20:34:22;;;;;;;81.3;56.5;;;;;;;-0.43;100;99297.42;;;;
2021/02/18 20:44:19;;;;;;;125.8;79.9;;;;;;;-0.43;100;99293.97;;;;
2021/02/18 20:54:17;;;;;;;101.7;68.8;;;;;;;-0.44;100;99284.39;;;;
2021/02/18 21:04:14;;;;;;;98.7;77.6;;;;;;;-0.49;100;99289.55;;;;
2021/02/18 21:14:12;;;;;;;105.5;76.6;;;;;;;-0.54;100;99282.25;;;;
2021/02/18 21:24:09;;;;;;;123.2;84.1;;;;;;;-0.55;100;99272.69;;;;
2021/02/18 21:34:07;;;;;;;108.5;79.4;;;;;;;-0.7;100;99259;;;;
2021/02/18 21:44:04;;;;;;;92.7;68.3;;;;;;;-0.64;100;99250.19;;;;
2021/02/18 21:54:02;;;;;;;77.3;60.9;;;;;;;-0.62;100;99256.88;;;;
2021/02/18 22:03:59;;;;;;;92.6;66.8;;;;;;;-0.69;100;99250.83;;;;
2021/02/18 22:13:57;;;;;;;92.3;59.5;;;;;;;-0.66;100;99254.91;;;;
2021/02/18 22:23:54;;;;;;;107.9;76.6;;;;;;;-0.63;100;99246.52;;;;
2021/02/18 22:33:52;;;;;;;92.3;63.3;;;;;;;-0.64;100;99229.02;;;;
2021/02/18 22:43:50;;;;;;;97.7;70.7;;;;;;;-0.75;100;99217.31;;;;
2021/02/18 22:53:47;;;;;;;104.1;71.4;;;;;;;-0.65;100;99216.8;;;;
2021/02/18 23:03:45;;;;;;;100.2;69.3;;;;;;;-0.66;100;99204.61;;;;
2021/02/18 23:13:43;;;;;;;101.2;72.6;;;;;;;-0.78;100;99191.29;;;;
2021/02/18 23:23:40;;;;;;;101;72.1;;;;;;;-0.75;100;99177.61;;;;
2021/02/18 23:33:38;;;;;;;101.1;67;;;;;;;-0.75;100;99174.97;;;;
2021/02/18 23:43:35;;;;;;;112.9;72.8;;;;;;;-0.8;100;99155.5;;;;
2021/02/18 23:53:33;;;;;;;90.6;64.4;;;;;;;-0.81;100;99145.94;;;;
